createdAt,value
2023-02-05T00:00:00.000Z,3.45
2023-02-05T00:15:00.000Z,3.34
2023-02-05T00:30:00.000Z,3.09
2023-02-05T00:45:00.000Z,2.81
2023-02-05T01:00:00.000Z,2.72
2023-02-05T01:15:00.000Z,2.53
2023-02-05T01:30:00.000Z,2.44
2023-02-05T01:45:00.000Z,2.81
2023-02-05T02:00:00.000Z,3.23
2023-02-05T02:15:00.000Z,3.23
2023-02-05T02:30:00.000Z,2.51
2023-02-05T02:45:00.000Z,2.06
2023-02-05T03:00:00.000Z,2.17
2023-02-05T03:15:00.000Z,2.08
2023-02-05T03:30:00.000Z,2.12
2023-02-05T03:45:00.000Z,1.92
2023-02-05T04:00:00.000Z,1.9
2023-02-05T04:15:00.000Z,1.96
2023-02-05T04:30:00.000Z,1.85
2023-02-05T04:45:00.000Z,1.55
2023-02-05T05:00:00.000Z,1.76
2023-02-05T05:15:00.000Z,1.39
2023-02-05T05:30:00.000Z,1.5
2023-02-05T05:45:00.000Z,1.87
2023-02-05T06:00:00.000Z,1.97
2023-02-05T06:15:00.000Z,2.03
2023-02-05T06:30:00.000Z,1.78
2023-02-05T06:45:00.000Z,1.87
2023-02-05T07:00:00.000Z,1.94
2023-02-05T07:15:00.000Z,1.88
2023-02-05T07:30:00.000Z,2.02
2023-02-05T07:45:00.000Z,2.26
2023-02-05T08:00:00.000Z,2.49
2023-02-05T08:15:00.000Z,2.39
2023-02-05T08:30:00.000Z,2.65
2023-02-05T08:45:00.000Z,3.15
2023-02-05T09:00:00.000Z,3.45
2023-02-05T09:15:00.000Z,4.13
2023-02-05T09:30:00.000Z,4.73
2023-02-05T09:45:00.000Z,5.01
2023-02-05T10:00:00.000Z,5.55
2023-02-05T10:15:00.000Z,6.6
2023-02-05T10:30:00.000Z,7.77
2023-02-05T10:45:00.000Z,6.55
2023-02-05T11:00:00.000Z,6.82
2023-02-05T11:15:00.000Z,7.84
2023-02-05T11:30:00.000Z,7.6
2023-02-05T11:45:00.000Z,7.63
2023-02-05T12:00:00.000Z,7.58
2023-02-05T12:15:00.000Z,7.61
2023-02-05T12:30:00.000Z,7.41
2023-02-05T12:45:00.000Z,7.22
2023-02-05T13:00:00.000Z,6.94
2023-02-05T13:15:00.000Z,6.89
2023-02-05T13:30:00.000Z,7.03
2023-02-05T13:45:00.000Z,6.94
2023-02-05T14:00:00.000Z,6.66
2023-02-05T14:15:00.000Z,6.72
2023-02-05T14:30:00.000Z,6.61
2023-02-05T14:45:00.000Z,6.49
2023-02-05T15:00:00.000Z,6.11
2023-02-05T15:15:00.000Z,5.81
2023-02-05T15:30:00.000Z,5.36
2023-02-05T15:45:00.000Z,4.9
2023-02-05T16:00:00.000Z,5.08
2023-02-05T16:15:00.000Z,4.86
2023-02-05T16:30:00.000Z,4.5
2023-02-05T16:45:00.000Z,4.41
2023-02-05T17:00:00.000Z,3.94
2023-02-05T17:15:00.000Z,3.63
2023-02-05T17:30:00.000Z,3.34
2023-02-05T17:45:00.000Z,3.26
2023-02-05T18:00:00.000Z,3.2
2023-02-05T18:15:00.000Z,3.22
2023-02-05T18:30:00.000Z,3.01
2023-02-05T18:45:00.000Z,2.83
2023-02-05T19:00:00.000Z,2.76
2023-02-05T19:15:00.000Z,2.74
2023-02-05T19:30:00.000Z,2.55
2023-02-05T19:45:00.000Z,2.44
2023-02-05T20:00:00.000Z,2.45
2023-02-05T20:15:00.000Z,2.48
2023-02-05T20:30:00.000Z,2.45
2023-02-05T20:45:00.000Z,2.39
2023-02-05T21:00:00.000Z,2.43
2023-02-05T21:15:00.000Z,2.24
2023-02-05T21:30:00.000Z,2.2
2023-02-05T21:45:00.000Z,2.12
2023-02-05T22:00:00.000Z,2.05
2023-02-05T22:15:00.000Z,1.9
2023-02-05T22:30:00.000Z,2.06
2023-02-05T22:45:00.000Z,2.07
2023-02-05T23:00:00.000Z,2.1
2023-02-05T23:15:00.000Z,1.94
2023-02-05T23:30:00.000Z,1.35
2023-02-05T23:45:00.000Z,1
